sensor_id;sensor_type;location;lat;lon;timestamp;pressure;altitude;pressure_sealevel;temperature;humidity
74427;BME280;62859;53.906;27.430;2023-02-27T00:01:33;1010.6;;;-0.7;48.5
74427;BME280;62859;53.906;27.430;2023-02-27T00:06:13;1010.7;;;-0.8;47.6
74427;BME280;62859;53.906;27.430;2023-02-27T00:12:05;1010.7;;;-0.8;47.9
74427;BME280;62859;53.906;27.430;2023-02-27T00:16:55;1010.8;;;-0.8;47.4
74427;BME280;62859;53.906;27.430;2023-02-27T00:22:03;1010.8;;;-0.8;47.7
74427;BME280;62859;53.906;27.430;2023-02-27T00:26:33;1010.9;;;-0.8;47.8
74427;BME280;62859;53.906;27.430;2023-02-27T00:31:49;1010.9;;;-0.7;47.9
74427;BME280;62859;53.906;27.430;2023-02-27T00:37:01;1010.9;;;-0.7;47.6
74427;BME280;62859;53.906;27.430;2023-02-27T00:41:55;1010.9;;;-0.7;47.8
74427;BME280;62859;53.906;27.430;2023-02-27T00:47:03;1011;;;-0.6;48.3
74427;BME280;62859;53.906;27.430;2023-02-27T00:51:19;1011;;;-0.7;48.4
74427;BME280;62859;53.906;27.430;2023-02-27T00:56:25;1011;;;-0.6;48.1
74427;BME280;62859;53.906;27.430;2023-02-27T01:02:05;1011.1;;;-0.6;47.6
74427;BME280;62859;53.906;27.430;2023-02-27T01:06:53;1011.2;;;-0.7;48
74427;BME280;62859;53.906;27.430;2023-02-27T01:12:03;1011.2;;;-0.6;47.8
74427;BME280;62859;53.906;27.430;2023-02-27T01:16:21;1011.3;;;-0.7;48.1
74427;BME280;62859;53.906;27.430;2023-02-27T01:21:25;1011.4;;;-0.7;48.1
74427;BME280;62859;53.906;27.430;2023-02-27T01:27:03;1011.5;;;-0.7;48.5
74427;BME280;62859;53.906;27.430;2023-02-27T01:31:53;1011.6;;;-0.6;48.5
74427;BME280;62859;53.906;27.430;2023-02-27T01:37:01;1011.6;;;-0.7;48
74427;BME280;62859;53.906;27.430;2023-02-27T01:41:33;1011.7;;;-0.7;48.7
74427;BME280;62859;53.906;27.430;2023-02-27T01:46:27;1011.7;;;-0.7;49.3
74427;BME280;62859;53.906;27.430;2023-02-27T01:52:02;1011.8;;;-0.7;49.7
74427;BME280;62859;53.906;27.430;2023-02-27T01:56:51;1011.9;;;-0.8;49.8
74427;BME280;62859;53.906;27.430;2023-02-27T02:02:01;1011.9;;;-0.8;49.5
74427;BME280;62859;53.906;27.430;2023-02-27T02:06:36;1011.9;;;-0.8;49.9
74427;BME280;62859;53.906;27.430;2023-02-27T02:11:25;1011.9;;;-0.7;49.8
74427;BME280;62859;53.906;27.430;2023-02-27T02:16:39;1012;;;-0.7;49.8
74427;BME280;62859;53.906;27.430;2023-02-27T02:22:09;1012;;;-0.7;49.2
74427;BME280;62859;53.906;27.430;2023-02-27T02:26:54;1012;;;-0.7;49.5
74427;BME280;62859;53.906;27.430;2023-02-27T02:31:40;1012;;;-0.7;49.8
74427;BME280;62859;53.906;27.430;2023-02-27T02:36:54;1012;;;-0.7;50
74427;BME280;62859;53.906;27.430;2023-02-27T02:41:27;1012.1;;;-0.7;50.1
74427;BME280;62859;53.906;27.430;2023-02-27T02:47:02;1012.2;;;-0.6;50.1
74427;BME280;62859;53.906;27.430;2023-02-27T02:51:52;1012.2;;;-0.6;50.4
74427;BME280;62859;53.906;27.430;2023-02-27T02:56:31;1012.2;;;-0.5;50.3
74427;BME280;62859;53.906;27.430;2023-02-27T03:01:14;1012.3;;;-0.5;50.2
74427;BME280;62859;53.906;27.430;2023-02-27T03:06:14;1012.4;;;-0.5;50.3
74427;BME280;62859;53.906;27.430;2023-02-27T03:12:01;1012.4;;;-0.5;50.8
74427;BME280;62859;53.906;27.430;2023-02-27T03:16:53;1012.4;;;-0.4;50.3
74427;BME280;62859;53.906;27.430;2023-02-27T03:21:35;1012.4;;;-0.4;50.2
74427;BME280;62859;53.906;27.430;2023-02-27T03:26:27;1012.5;;;-0.4;50.3
74427;BME280;62859;53.906;27.430;2023-02-27T03:31:26;1012.5;;;-0.4;50.1
74427;BME280;62859;53.906;27.430;2023-02-27T03:37:04;1012.6;;;-0.4;50.4
74427;BME280;62859;53.906;27.430;2023-02-27T03:41:54;1012.6;;;-0.3;50.7
74427;BME280;62859;53.906;27.430;2023-02-27T03:46:35;1012.7;;;-0.4;50.8
74427;BME280;62859;53.906;27.430;2023-02-27T03:51:14;1012.7;;;-0.3;50.5
74427;BME280;62859;53.906;27.430;2023-02-27T03:56:13;1012.8;;;-0.3;50.6
74427;BME280;62859;53.906;27.430;2023-02-27T04:02:01;1012.9;;;-0.3;50.8
74427;BME280;62859;53.906;27.430;2023-02-27T04:06:53;1012.9;;;-0.3;50.6
74427;BME280;62859;53.906;27.430;2023-02-27T04:11:34;1013.1;;;-0.3;50.8
74427;BME280;62859;53.906;27.430;2023-02-27T04:16:35;1013.1;;;-0.3;51
74427;BME280;62859;53.906;27.430;2023-02-27T04:21:37;1013.2;;;-0.3;50.5
74427;BME280;62859;53.906;27.430;2023-02-27T04:27:05;1013.2;;;-0.2;50.5
74427;BME280;62859;53.906;27.430;2023-02-27T04:31:53;1013.3;;;-0.2;49.9
74427;BME280;62859;53.906;27.430;2023-02-27T04:36:48;1013.4;;;-0.2;49.8
74427;BME280;62859;53.906;27.430;2023-02-27T04:41:32;1013.4;;;-0.2;50.5
74427;BME280;62859;53.906;27.430;2023-02-27T04:46:14;1013.5;;;-0.2;50.6
74427;BME280;62859;53.906;27.430;2023-02-27T04:52:03;1013.6;;;-0.2;50.9
74427;BME280;62859;53.906;27.430;2023-02-27T04:56:51;1013.7;;;-0.2;50.5
74427;BME280;62859;53.906;27.430;2023-02-27T05:01:23;1013.7;;;-0.2;51.4
74427;BME280;62859;53.906;27.430;2023-02-27T05:06:26;1013.7;;;-0.2;51.4
74427;BME280;62859;53.906;27.430;2023-02-27T05:11:14;1013.7;;;-0.2;51.2
74427;BME280;62859;53.906;27.430;2023-02-27T05:17:00;1013.8;;;-0.2;51.4
74427;BME280;62859;53.906;27.430;2023-02-27T05:21:37;1013.8;;;-0.2;51.7
74427;BME280;62859;53.906;27.430;2023-02-27T05:26:34;1013.9;;;-0.2;51.7
74427;BME280;62859;53.906;27.430;2023-02-27T05:31:20;1014;;;-0.2;52
74427;BME280;62859;53.906;27.430;2023-02-27T05:36:20;1014.1;;;-0.2;52
74427;BME280;62859;53.906;27.430;2023-02-27T05:42:02;1014.2;;;-0.2;51.7
74427;BME280;62859;53.906;27.430;2023-02-27T05:46:52;1014.2;;;-0.1;52.4
74427;BME280;62859;53.906;27.430;2023-02-27T05:51:32;1014.3;;;1.4;52.7
74427;BME280;62859;53.906;27.430;2023-02-27T05:56:13;1014.4;;;1.8;48.8
74427;BME280;62859;53.906;27.430;2023-02-27T06:01:13;1014.4;;;1.7;48.2
74427;BME280;62859;53.906;27.430;2023-02-27T06:07:01;1014.4;;;1.6;48.1
74427;BME280;62859;53.906;27.430;2023-02-27T06:11:39;1014.4;;;1.3;48.7
74427;BME280;62859;53.906;27.430;2023-02-27T06:16:59;1014.4;;;1.3;49.3
74427;BME280;62859;53.906;27.430;2023-02-27T06:21:23;1014.4;;;1.2;49.4
74427;BME280;62859;53.906;27.430;2023-02-27T06:26:13;1014.5;;;1;49.4
74427;BME280;62859;53.906;27.430;2023-02-27T06:31:57;1014.5;;;0.8;49.6
74427;BME280;62859;53.906;27.430;2023-02-27T06:36:27;1014.7;;;0.8;49.9
74427;BME280;62859;53.906;27.430;2023-02-27T06:41:59;1014.9;;;0.8;49.9
74427;BME280;62859;53.906;27.430;2023-02-27T06:46:25;1014.9;;;0.7;49.9
74427;BME280;62859;53.906;27.430;2023-02-27T06:51:33;1015;;;0.7;49.8
74427;BME280;62859;53.906;27.430;2023-02-27T06:57:01;1015;;;0.5;49.9
74427;BME280;62859;53.906;27.430;2023-02-27T07:01:51;1015;;;0.4;50.8
74427;BME280;62859;53.906;27.430;2023-02-27T07:07:01;1015.1;;;0.5;51.2
74427;BME280;62859;53.906;27.430;2023-02-27T07:11:33;1015.1;;;0.5;51.3
74427;BME280;62859;53.906;27.430;2023-02-27T07:16:21;1015.1;;;0.5;50.9
74427;BME280;62859;53.906;27.430;2023-02-27T07:22:01;1015.2;;;0.7;52.5
74427;BME280;62859;53.906;27.430;2023-02-27T07:26:51;1015.2;;;1.1;52.2
74427;BME280;62859;53.906;27.430;2023-02-27T07:32:01;1015.2;;;1.2;50.4
74427;BME280;62859;53.906;27.430;2023-02-27T07:36:23;1015.3;;;1;50.2
74427;BME280;62859;53.906;27.430;2023-02-27T07:41:13;1015.4;;;0.9;50.7
74427;BME280;62859;53.906;27.430;2023-02-27T07:46:59;1015.5;;;0.8;51.1
74427;BME280;62859;53.906;27.430;2023-02-27T07:51:49;1015.5;;;0.7;51
74427;BME280;62859;53.906;27.430;2023-02-27T07:56:59;1015.6;;;0.7;51.2
74427;BME280;62859;53.906;27.430;2023-02-27T10:52:06;1017.6;;;0.7;51.9
74427;BME280;62859;53.906;27.430;2023-02-27T10:56:14;1017.6;;;0.7;52
74427;BME280;62859;53.906;27.430;2023-02-27T11:01:50;1017.6;;;0.7;52.1
74427;BME280;62859;53.906;27.430;2023-02-27T11:06:37;1017.6;;;0.8;51.9
74427;BME280;62859;53.906;27.430;2023-02-27T11:11:39;1017.6;;;0.8;51.8
74427;BME280;62859;53.906;27.430;2023-02-27T11:16:56;1017.7;;;0.7;51.8
74427;BME280;62859;53.906;27.430;2023-02-27T11:22:02;1017.7;;;0.7;52.1
74427;BME280;62859;53.906;27.430;2023-02-27T11:26:52;1017.8;;;0.8;51.8
74427;BME280;62859;53.906;27.430;2023-02-27T11:31:25;1017.7;;;0.8;51.3
74427;BME280;62859;53.906;27.430;2023-02-27T11:36:13;1017.8;;;0.8;51.2
74427;BME280;62859;53.906;27.430;2023-02-27T11:41:47;1017.9;;;0.7;51
74427;BME280;62859;53.906;27.430;2023-02-27T11:46:37;1017.9;;;0.7;51.1
74427;BME280;62859;53.906;27.430;2023-02-27T11:51:52;1018;;;0.7;51
74427;BME280;62859;53.906;27.430;2023-02-27T11:56:29;1018;;;0.8;50.7
74427;BME280;62859;53.906;27.430;2023-02-27T12:01:58;1018;;;0.8;50.8
74427;BME280;62859;53.906;27.430;2023-02-27T12:07:04;1018;;;0.8;50.3
74427;BME280;62859;53.906;27.430;2023-02-27T12:11:14;1018;;;0.8;50.5
74427;BME280;62859;53.906;27.430;2023-02-27T12:16:50;1017.9;;;0.8;50.8
74427;BME280;62859;53.906;27.430;2023-02-27T12:21:13;1017.9;;;0.8;51
74427;BME280;62859;53.906;27.430;2023-02-27T12:26:40;1018.1;;;0.8;50.3
74427;BME280;62859;53.906;27.430;2023-02-27T12:32:00;1018;;;0.8;50.3
74427;BME280;62859;53.906;27.430;2023-02-27T12:36:39;1018;;;0.8;50.2
74427;BME280;62859;53.906;27.430;2023-02-27T12:41:55;1018.2;;;0.8;50.3
74427;BME280;62859;53.906;27.430;2023-02-27T12:46:19;1018.3;;;0.8;49.9
74427;BME280;62859;53.906;27.430;2023-02-27T12:51:42;1018.4;;;0.8;50.3
74427;BME280;62859;53.906;27.430;2023-02-27T12:57:08;1018.4;;;0.8;50.2
74427;BME280;62859;53.906;27.430;2023-02-27T13:01:26;1018.4;;;0.8;50.1
74427;BME280;62859;53.906;27.430;2023-02-27T13:06:47;1018.3;;;0.8;50.4
74427;BME280;62859;53.906;27.430;2023-02-27T13:11:24;1018.4;;;0.8;50.5
74427;BME280;62859;53.906;27.430;2023-02-27T13:16:49;1018.4;;;0.8;50.4
74427;BME280;62859;53.906;27.430;2023-02-27T13:22:02;1018.3;;;0.8;50.6
74427;BME280;62859;53.906;27.430;2023-02-27T13:26:42;1018.4;;;0.8;50.7
74427;BME280;62859;53.906;27.430;2023-02-27T13:31:51;1018.3;;;0.8;50.5
74427;BME280;62859;53.906;27.430;2023-02-27T13:36:36;1018.4;;;0.8;51.1
74427;BME280;62859;53.906;27.430;2023-02-27T13:41:47;1018.4;;;0.8;51.3
74427;BME280;62859;53.906;27.430;2023-02-27T13:47:27;1018.3;;;0.9;51.2
74427;BME280;62859;53.906;27.430;2023-02-27T13:51:47;1018.4;;;0.8;51.3
74427;BME280;62859;53.906;27.430;2023-02-27T13:56:43;1018.4;;;0.9;51
74427;BME280;62859;53.906;27.430;2023-02-27T14:01:24;1018.5;;;0.8;50.9
74427;BME280;62859;53.906;27.430;2023-02-27T14:06:47;1018.5;;;0.8;51
74427;BME280;62859;53.906;27.430;2023-02-27T14:11:59;1018.5;;;0.7;51.3
74427;BME280;62859;53.906;27.430;2023-02-27T14:16:55;1018.5;;;0.7;51.7
74427;BME280;62859;53.906;27.430;2023-02-27T14:21:56;1018.5;;;0.7;51.7
74427;BME280;62859;53.906;27.430;2023-02-27T14:26:25;1018.4;;;0.7;51.6
74427;BME280;62859;53.906;27.430;2023-02-27T14:31:37;1018.5;;;0.7;52.1
74427;BME280;62859;53.906;27.430;2023-02-27T14:37:06;1018.5;;;0.6;51.7
74427;BME280;62859;53.906;27.430;2023-02-27T14:41:40;1018.5;;;0.6;51.9
74427;BME280;62859;53.906;27.430;2023-02-27T14:46:47;1018.6;;;0.5;51.8
74427;BME280;62859;53.906;27.430;2023-02-27T14:51:25;1018.6;;;0.4;51.7
74427;BME280;62859;53.906;27.430;2023-02-27T14:56:55;1018.7;;;0.4;52
74427;BME280;62859;53.906;27.430;2023-02-27T15:01:59;1018.7;;;0.3;52.2
74427;BME280;62859;53.906;27.430;2023-02-27T15:06:15;1018.8;;;0.2;52.5
74427;BME280;62859;53.906;27.430;2023-02-27T15:11:48;1018.9;;;0.2;52.6
74427;BME280;62859;53.906;27.430;2023-02-27T15:16:16;1018.9;;;0.2;52.6
74427;BME280;62859;53.906;27.430;2023-02-27T15:21:48;1019;;;0.2;52.9
74427;BME280;62859;53.906;27.430;2023-02-27T15:27:00;1019;;;0.1;53.2
74427;BME280;62859;53.906;27.430;2023-02-27T15:31:35;1019;;;0.1;53.2
74427;BME280;62859;53.906;27.430;2023-02-27T15:36:47;1019.1;;;0.1;53.6
74427;BME280;62859;53.906;27.430;2023-02-27T15:41:25;1019.1;;;0.1;53.8
74427;BME280;62859;53.906;27.430;2023-02-27T15:46:37;1019.1;;;0.1;53.8
74427;BME280;62859;53.906;27.430;2023-02-27T15:52:03;1019.1;;;0.1;53.9
74427;BME280;62859;53.906;27.430;2023-02-27T15:56:37;1019.1;;;0;54
74427;BME280;62859;53.906;27.430;2023-02-27T16:01:49;1019.2;;;-0.1;54.3
74427;BME280;62859;53.906;27.430;2023-02-27T16:06:26;1019.3;;;-0.1;54.8
74427;BME280;62859;53.906;27.430;2023-02-27T16:11:47;1019.4;;;-0.1;54.7
74427;BME280;62859;53.906;27.430;2023-02-27T16:17:19;1019.4;;;-0.1;54.7
74427;BME280;62859;53.906;27.430;2023-02-27T16:21:26;1019.4;;;-0.1;54.4
74427;BME280;62859;53.906;27.430;2023-02-27T16:26:48;1019.5;;;-0.2;55
74427;BME280;62859;53.906;27.430;2023-02-27T16:31:26;1019.5;;;-0.2;54.9
74427;BME280;62859;53.906;27.430;2023-02-27T16:36:51;1019.6;;;-0.2;55.2
74427;BME280;62859;53.906;27.430;2023-02-27T16:42:03;1019.7;;;-0.1;55.4
74427;BME280;62859;53.906;27.430;2023-02-27T16:46:25;1019.6;;;-0.1;55.1
74427;BME280;62859;53.906;27.430;2023-02-27T16:51:45;1019.6;;;-0.1;55.1
74427;BME280;62859;53.906;27.430;2023-02-27T16:56:13;1019.7;;;-0.2;55.3
74427;BME280;62859;53.906;27.430;2023-02-27T17:01:45;1019.9;;;-0.4;55.9
74427;BME280;62859;53.906;27.430;2023-02-27T17:07:01;1020;;;-0.4;56.2
74427;BME280;62859;53.906;27.430;2023-02-27T17:11:13;1020.1;;;-0.4;56.2
74427;BME280;62859;53.906;27.430;2023-02-27T17:16:59;1020.2;;;-0.4;55.9
74427;BME280;62859;53.906;27.430;2023-02-27T17:21:13;1020.3;;;-0.4;56
74427;BME280;62859;53.906;27.430;2023-02-27T17:26:47;1020.3;;;-0.2;56.1
74427;BME280;62859;53.906;27.430;2023-02-27T17:31:59;1020.3;;;-0.2;55.5
74427;BME280;62859;53.906;27.430;2023-02-27T17:36:39;1020.3;;;-0.2;55.4
74427;BME280;62859;53.906;27.430;2023-02-27T17:41:59;1020.4;;;-0.3;55.4
74427;BME280;62859;53.906;27.430;2023-02-27T17:46:25;1020.3;;;-0.3;55.7
74427;BME280;62859;53.906;27.430;2023-02-27T17:51:47;1020.4;;;-0.3;55.7
74427;BME280;62859;53.906;27.430;2023-02-27T17:57:01;1020.4;;;-0.3;55.6
74427;BME280;62859;53.906;27.430;2023-02-27T18:01:25;1020.4;;;-0.3;55.6
74427;BME280;62859;53.906;27.430;2023-02-27T18:06:59;1020.5;;;-0.3;55.8
74427;BME280;62859;53.906;27.430;2023-02-27T18:11:25;1020.5;;;-0.3;55.7
74427;BME280;62859;53.906;27.430;2023-02-27T18:16:47;1020.6;;;-0.3;56.1
74427;BME280;62859;53.906;27.430;2023-02-27T18:22:01;1020.6;;;-0.4;55.9
74427;BME280;62859;53.906;27.430;2023-02-27T18:26:38;1020.7;;;-0.4;56.1
74427;BME280;62859;53.906;27.430;2023-02-27T18:32:00;1020.6;;;-0.3;56.2
74427;BME280;62859;53.906;27.430;2023-02-27T18:36:25;1020.6;;;-0.4;55.8
74427;BME280;62859;53.906;27.430;2023-02-27T18:41:45;1020.7;;;-0.4;55.8
74427;BME280;62859;53.906;27.430;2023-02-27T18:46:59;1020.8;;;-0.6;55.7
74427;BME280;62859;53.906;27.430;2023-02-27T18:51:14;1020.9;;;-0.5;56
74427;BME280;62859;53.906;27.430;2023-02-27T18:57:01;1020.9;;;-0.5;55.5
74427;BME280;62859;53.906;27.430;2023-02-27T19:01:17;1021;;;-0.5;55.6
74427;BME280;62859;53.906;27.430;2023-02-27T19:06:45;1021;;;-0.5;55.8
74427;BME280;62859;53.906;27.430;2023-02-27T19:11:59;1021;;;-0.4;55.4
74427;BME280;62859;53.906;27.430;2023-02-27T19:16:13;1021;;;-0.4;55.2
74427;BME280;62859;53.906;27.430;2023-02-27T19:22:01;1021;;;-0.4;55
74427;BME280;62859;53.906;27.430;2023-02-27T19:26:41;1021;;;-0.4;54.6
74427;BME280;62859;53.906;27.430;2023-02-27T19:31:45;1021;;;-0.4;54.6
74427;BME280;62859;53.906;27.430;2023-02-27T19:36:59;1021.1;;;-0.4;54.8
74427;BME280;62859;53.906;27.430;2023-02-27T19:41:13;1021.1;;;-0.5;54.8
74427;BME280;62859;53.906;27.430;2023-02-27T19:47:01;1021.2;;;-0.5;55.1
74427;BME280;62859;53.906;27.430;2023-02-27T19:51:13;1021.2;;;-0.5;55
74427;BME280;62859;53.906;27.430;2023-02-27T19:56:47;1021.3;;;-0.6;54.8
74427;BME280;62859;53.906;27.430;2023-02-27T20:01:59;1021.3;;;-0.5;55
74427;BME280;62859;53.906;27.430;2023-02-27T20:06:26;1021.2;;;-0.5;54.8
74427;BME280;62859;53.906;27.430;2023-02-27T20:12:01;1021.2;;;-0.5;55.1
74427;BME280;62859;53.906;27.430;2023-02-27T20:16:14;1021.3;;;-0.5;54.9
74427;BME280;62859;53.906;27.430;2023-02-27T20:21:45;1021.3;;;-0.5;55.1
74427;BME280;62859;53.906;27.430;2023-02-27T20:26:59;1021.2;;;-0.4;55
74427;BME280;62859;53.906;27.430;2023-02-27T20:31:13;1021.3;;;-0.4;54.5
74427;BME280;62859;53.906;27.430;2023-02-27T20:37:01;1021.3;;;-0.4;54.5
74427;BME280;62859;53.906;27.430;2023-02-27T20:41:25;1021.3;;;-0.5;53.9
74427;BME280;62859;53.906;27.430;2023-02-27T20:46:45;1021.3;;;-0.5;54.1
74427;BME280;62859;53.906;27.430;2023-02-27T20:51:59;1021.3;;;-0.5;54.2
74427;BME280;62859;53.906;27.430;2023-02-27T20:57:01;1021.3;;;-0.5;53.7
74427;BME280;62859;53.906;27.430;2023-02-27T21:01:59;1021.3;;;-0.5;53.4
74427;BME280;62859;53.906;27.430;2023-02-27T21:06:25;1021.3;;;-0.5;53.8
74427;BME280;62859;53.906;27.430;2023-02-27T21:11:59;1021.2;;;-0.5;54.2
74427;BME280;62859;53.906;27.430;2023-02-27T21:17:01;1021.2;;;-0.6;53.8
74427;BME280;62859;53.906;27.430;2023-02-27T21:21:14;1021.3;;;-0.7;53.7
74427;BME280;62859;53.906;27.430;2023-02-27T21:26:59;1021.3;;;-0.8;54
74427;BME280;62859;53.906;27.430;2023-02-27T21:31:26;1021.3;;;-0.8;54.1
74427;BME280;62859;53.906;27.430;2023-02-27T21:36:47;1021.3;;;-0.7;54
74427;BME280;62859;53.906;27.430;2023-02-27T21:41:49;1021.4;;;-0.7;53.8
74427;BME280;62859;53.906;27.430;2023-02-27T21:46:39;1021.4;;;-0.7;53.9
74427;BME280;62859;53.906;27.430;2023-02-27T21:52:01;1021.4;;;-0.8;54.2
74427;BME280;62859;53.906;27.430;2023-02-27T21:56:13;1021.4;;;-0.7;53.9
74427;BME280;62859;53.906;27.430;2023-02-27T22:01:43;1021.4;;;-0.8;54.3
74427;BME280;62859;53.906;27.430;2023-02-27T22:06:59;1021.5;;;-0.8;54.5
74427;BME280;62859;53.906;27.430;2023-02-27T22:11:39;1021.6;;;-0.8;54.3
74427;BME280;62859;53.906;27.430;2023-02-27T22:16:59;1021.7;;;-0.8;54.4
74427;BME280;62859;53.906;27.430;2023-02-27T22:21:14;1021.7;;;-0.8;54
74427;BME280;62859;53.906;27.430;2023-02-27T22:26:47;1021.7;;;-0.8;54.1
74427;BME280;62859;53.906;27.430;2023-02-27T22:32:01;1021.7;;;-0.8;54.6
74427;BME280;62859;53.906;27.430;2023-02-27T22:36:35;1021.7;;;-0.8;54.1
74427;BME280;62859;53.906;27.430;2023-02-27T22:42:01;1021.7;;;-0.8;54.1
74427;BME280;62859;53.906;27.430;2023-02-27T22:46:26;1021.7;;;-0.8;53.9
74427;BME280;62859;53.906;27.430;2023-02-27T22:51:39;1021.7;;;-0.8;54.1
74427;BME280;62859;53.906;27.430;2023-02-27T22:57:03;1021.7;;;-0.8;53.9
74427;BME280;62859;53.906;27.430;2023-02-27T23:01:34;1021.7;;;-0.8;54.2
74427;BME280;62859;53.906;27.430;2023-02-27T23:07:01;1021.7;;;-0.9;54.4
74427;BME280;62859;53.906;27.430;2023-02-27T23:11:13;1021.7;;;-0.8;54.5
74427;BME280;62859;53.906;27.430;2023-02-27T23:16:27;1021.7;;;-0.8;54.9
74427;BME280;62859;53.906;27.430;2023-02-27T23:22:01;1021.6;;;-0.7;55.1
74427;BME280;62859;53.906;27.430;2023-02-27T23:26:13;1021.6;;;-0.7;55.1
74427;BME280;62859;53.906;27.430;2023-02-27T23:31:59;1021.6;;;-0.7;55.3
74427;BME280;62859;53.906;27.430;2023-02-27T23:36:27;1021.5;;;-0.7;55.2
74427;BME280;62859;53.906;27.430;2023-02-27T23:41:47;1021.5;;;-0.6;55.1
74427;BME280;62859;53.906;27.430;2023-02-27T23:46:59;1021.5;;;-0.6;55.1
74427;BME280;62859;53.906;27.430;2023-02-27T23:51:37;1021.4;;;-0.6;55.3
74427;BME280;62859;53.906;27.430;2023-02-27T23:56:45;1021.4;;;-0.6;55.2
